Time;durP1;ratioP1;P1;durP2;ratioP2;P2;SDS_P1;SDS_P2;PMS_P1;PMS_P2;Temp;Humidity;BMP_temperature;BMP_pressure;BME280_temperature;BME280_humidity;BME280_pressure;Samples;Min_cycle;Max_cycle;Signal;HPM_P1;HPM_P2
2021/11/15 00:02:07;;;;;;;6.80;5.00;;;;;;;19.54;47.22;102567.38;5091721;28;20394;-69
2021/11/15 00:04:33;;;;;;;6.82;4.75;;;;;;;19.53;47.38;102570.13;5092898;28;20032;-69
2021/11/15 00:07:00;;;;;;;6.43;4.80;;;;;;;19.51;47.21;102569.38;5092321;28;20039;-68
2021/11/15 00:09:25;;;;;;;5.97;4.43;;;;;;;19.50;47.34;102565.00;5091992;28;20115;-68
2021/11/15 00:11:50;;;;;;;6.68;4.78;;;;;;;19.49;47.31;102565.97;5092679;28;20078;-68
2021/11/15 00:14:16;;;;;;;6.40;5.28;;;;;;;19.44;47.14;102555.69;5092421;28;20115;-68
2021/11/15 00:16:41;;;;;;;7.85;5.10;;;;;;;19.45;47.16;102567.09;5092113;28;20059;-68
2021/11/15 00:19:06;;;;;;;6.50;4.60;;;;;;;19.45;47.36;102559.16;5092111;28;20024;-68
2021/11/15 00:21:32;;;;;;;6.95;5.00;;;;;;;19.42;47.21;102557.53;5092552;28;20039;-68
2021/11/15 00:23:57;;;;;;;6.90;5.00;;;;;;;19.42;47.14;102564.63;5091517;28;20035;-68
2021/11/15 00:26:22;;;;;;;6.60;4.65;;;;;;;19.42;47.25;102567.28;5092457;28;20435;-67
2021/11/15 00:28:48;;;;;;;6.40;4.53;;;;;;;19.40;47.32;102562.91;5092549;28;20024;-68
2021/11/15 00:31:13;;;;;;;6.78;4.57;;;;;;;19.36;47.30;102556.13;5091801;28;20028;-67
2021/11/15 00:33:38;;;;;;;6.95;4.93;;;;;;;19.36;47.17;102550.84;5092519;28;20424;-67
2021/11/15 00:36:04;;;;;;;6.45;4.78;;;;;;;19.35;47.32;102558.88;5092156;28;20020;-67
2021/11/15 00:38:29;;;;;;;7.18;4.93;;;;;;;19.33;47.21;102556.31;5091434;28;20520;-67
2021/11/15 00:40:55;;;;;;;6.43;4.40;;;;;;;19.31;47.17;102558.19;5092505;28;20455;-68
2021/11/15 00:43:20;;;;;;;8.38;5.53;;;;;;;19.31;47.13;102554.69;5092227;28;20024;-68
2021/11/15 00:45:45;;;;;;;7.10;4.93;;;;;;;19.30;47.20;102559.13;5091672;28;20370;-68
2021/11/15 00:48:11;;;;;;;6.10;4.35;;;;;;;19.29;47.03;102556.59;5091973;28;20020;-68
2021/11/15 00:50:37;;;;;;;7.63;5.07;;;;;;;19.27;47.21;102561.13;5092481;28;20076;-68
2021/11/15 00:53:03;;;;;;;6.45;4.57;;;;;;;19.26;46.97;102559.41;5091355;28;20075;-68
2021/11/15 00:55:29;;;;;;;6.85;4.88;;;;;;;19.26;47.06;102554.13;5092348;28;20052;-68
2021/11/15 00:57:54;;;;;;;6.30;4.43;;;;;;;19.24;46.85;102554.22;5095432;28;20420;-68
2021/11/15 01:00:24;;;;;;;7.00;5.03;;;;;;;19.24;47.11;102553.38;5095602;28;20117;-68
2021/11/15 01:02:50;;;;;;;6.35;4.40;;;;;;;19.23;46.86;102563.06;5096295;28;20024;-68
2021/11/15 01:05:17;;;;;;;6.03;4.32;;;;;;;19.20;47.02;102556.19;5094953;28;20036;-68
2021/11/15 01:07:43;;;;;;;6.60;4.30;;;;;;;19.23;47.09;102570.16;5096310;28;20035;-67
2021/11/15 01:10:14;;;;;;;6.25;4.45;;;;;;;19.20;46.93;102563.25;5095852;28;20012;-67
2021/11/15 01:12:40;;;;;;;6.63;4.63;;;;;;;19.18;46.74;102560.72;5095347;28;20047;-67
2021/11/15 01:15:08;;;;;;;6.88;4.82;;;;;;;19.18;46.82;102563.38;5095691;28;20103;-68
2021/11/15 01:17:35;;;;;;;5.55;3.90;;;;;;;19.16;47.06;102565.22;5096013;28;20020;-68
2021/11/15 01:20:00;;;;;;;5.47;4.03;;;;;;;19.16;47.40;102559.94;5094761;28;20036;-68
2021/11/15 01:22:25;;;;;;;6.65;4.05;;;;;;;19.16;47.02;102567.88;5095932;28;20024;-68
2021/11/15 01:24:50;;;;;;;6.47;4.80;;;;;;;19.15;47.04;102571.47;5095981;28;20507;-68
2021/11/15 01:27:16;;;;;;;6.85;4.65;;;;;;;19.15;46.93;102568.84;5094597;28;20467;-69
2021/11/15 01:29:41;;;;;;;5.65;3.90;;;;;;;19.13;46.94;102565.41;5095697;28;20020;-68
2021/11/15 01:32:06;;;;;;;5.93;4.20;;;;;;;19.14;46.77;102564.47;5095359;28;20024;-68
2021/11/15 01:34:32;;;;;;;6.68;4.35;;;;;;;19.14;46.77;102569.75;5094787;28;20051;-68
2021/11/15 01:36:58;;;;;;;6.13;4.47;;;;;;;19.13;46.73;102570.69;5095322;28;20024;-68
2021/11/15 01:39:24;;;;;;;5.80;4.22;;;;;;;19.10;46.53;102565.59;5095401;28;20075;-68
2021/11/15 01:41:51;;;;;;;6.70;4.05;;;;;;;19.11;46.70;102569.09;5094726;28;20090;-68
2021/11/15 01:44:16;;;;;;;5.82;4.05;;;;;;;19.11;46.67;102574.38;5095056;28;20073;-68
2021/11/15 01:46:42;;;;;;;5.95;4.30;;;;;;;19.11;46.68;102571.75;5095337;28;20448;-68
2021/11/15 01:49:07;;;;;;;6.15;4.22;;;;;;;19.09;46.72;102571.81;5094031;28;20020;-67
2021/11/15 01:51:33;;;;;;;5.70;3.97;;;;;;;19.08;46.70;102567.47;5095283;28;20118;-67
2021/11/15 01:53:58;;;;;;;6.32;4.25;;;;;;;19.07;46.60;102570.19;5095118;28;20114;-67
2021/11/15 01:56:23;;;;;;;6.05;4.53;;;;;;;19.07;46.60;102567.56;5094396;28;20463;-66
2021/11/15 01:58:49;;;;;;;6.43;4.05;;;;;;;19.05;46.51;102565.00;5095197;28;20124;-67
2021/11/15 02:01:14;;;;;;;6.88;4.32;;;;;;;19.05;46.72;102558.88;5094848;28;20138;-67
2021/11/15 02:03:40;;;;;;;5.85;4.20;;;;;;;19.04;46.33;102560.66;5094358;28;20351;-67
2021/11/15 02:06:06;;;;;;;6.63;4.20;;;;;;;19.03;46.57;102553.69;5094737;28;20056;-67
2021/11/15 02:08:32;;;;;;;5.88;4.20;;;;;;;19.01;46.30;102548.50;5093592;28;20024;-67
2021/11/15 02:10:57;;;;;;;5.65;3.95;;;;;;;19.01;46.49;102545.84;5094441;28;20348;-68
2021/11/15 02:13:24;;;;;;;6.50;4.65;;;;;;;19.01;46.57;102545.84;5095133;28;20059;-67
2021/11/15 02:15:51;;;;;;;6.80;5.18;;;;;;;19.00;46.40;102538.84;5094225;28;20554;-67
2021/11/15 02:18:17;;;;;;;5.63;3.80;;;;;;;19.00;46.24;102532.72;5094406;28;20111;-67
2021/11/15 02:20:53;;;;;;;6.15;4.60;;;;;;;18.99;46.31;102534.53;5094885;28;20021;-67
2021/11/15 02:23:20;;;;;;;5.80;4.22;;;;;;;18.98;46.48;102530.16;5093963;28;20072;-67
2021/11/15 02:25:49;;;;;;;6.28;4.10;;;;;;;18.97;46.14;102530.25;5094822;28;20046;-67
2021/11/15 02:28:14;;;;;;;6.20;4.43;;;;;;;18.96;46.19;102528.53;5094562;28;20024;-68
2021/11/15 02:30:41;;;;;;;5.88;4.03;;;;;;;18.95;46.41;102522.41;5094232;28;20515;-68
2021/11/15 02:33:06;;;;;;;6.43;4.30;;;;;;;18.91;46.48;102523.53;5095055;28;20020;-67
2021/11/15 02:35:32;;;;;;;6.38;4.15;;;;;;;18.94;46.21;102527.78;5096550;28;20051;-68
2021/11/15 02:37:57;;;;;;;6.10;4.68;;;;;;;18.93;46.51;102523.44;5095491;28;20111;-66
2021/11/15 02:40:25;;;;;;;6.07;4.10;;;;;;;18.92;46.31;102519.94;5096778;28;20471;-67
2021/11/15 02:42:51;;;;;;;5.75;4.00;;;;;;;18.93;46.35;102532.22;5102677;28;20035;-67
2021/11/15 02:45:18;;;;;;;5.15;3.67;;;;;;;18.92;46.24;102524.41;5103680;28;20024;-68
2021/11/15 02:47:44;;;;;;;5.47;3.97;;;;;;;18.92;46.00;102527.88;5104464;28;20114;-68
2021/11/15 02:50:13;;;;;;;5.70;3.88;;;;;;;18.88;45.95;102518.41;5103641;28;20023;-68
2021/11/15 02:52:43;;;;;;;5.82;4.05;;;;;;;18.90;46.19;102523.63;5098927;28;20081;-68
2021/11/15 02:55:08;;;;;;;5.50;3.90;;;;;;;18.90;45.98;102528.91;5099487;28;20028;-68
2021/11/15 02:57:34;;;;;;;5.95;4.38;;;;;;;18.87;46.11;102529.94;5099491;28;20032;-68
2021/11/15 02:59:59;;;;;;;5.68;3.97;;;;;;;18.89;46.12;102533.34;5094315;28;20020;-68
2021/11/15 03:02:25;;;;;;;5.65;3.67;;;;;;;18.87;46.37;102529.06;5094180;28;20027;-68
2021/11/15 03:04:50;;;;;;;5.97;4.00;;;;;;;18.84;46.34;102530.97;5093477;28;20032;-68
2021/11/15 03:07:15;;;;;;;6.13;4.13;;;;;;;18.84;46.13;102528.31;5093844;28;20411;-67
2021/11/15 03:09:41;;;;;;;6.43;4.32;;;;;;;18.84;46.01;102533.59;5093843;28;20044;-68
2021/11/15 03:12:08;;;;;;;5.68;3.58;;;;;;;18.82;45.85;102527.53;5092770;28;20121;-68
2021/11/15 03:14:34;;;;;;;6.03;4.20;;;;;;;18.82;45.95;102526.69;5093824;28;20122;-68
2021/11/15 03:16:59;;;;;;;5.85;4.05;;;;;;;18.82;46.00;102524.06;5093668;28;20115;-68
2021/11/15 03:19:25;;;;;;;6.55;4.65;;;;;;;18.80;45.89;102518.84;5092860;28;20314;-67
2021/11/15 03:21:50;;;;;;;6.03;3.92;;;;;;;18.81;46.00;102523.19;5093625;28;20044;-68
2021/11/15 03:24:15;;;;;;;5.78;4.32;;;;;;;18.80;46.14;102521.50;5093416;28;20040;-68
2021/11/15 03:26:41;;;;;;;5.80;3.90;;;;;;;18.81;46.22;102530.25;5092704;28;20048;-68
2021/11/15 03:29:06;;;;;;;5.18;3.67;;;;;;;18.80;46.02;102533.84;5092952;28;20024;-68
2021/11/15 03:31:34;;;;;;;6.18;4.38;;;;;;;18.77;45.86;102528.72;5093578;28;20115;-68
2021/11/15 03:34:09;;;;;;;6.22;4.25;;;;;;;18.78;45.98;102533.91;5092568;28;20042;-67
2021/11/15 03:36:35;;;;;;;6.70;4.43;;;;;;;18.78;46.08;102531.28;5093573;28;20376;-67
2021/11/15 03:39:03;;;;;;;5.95;4.18;;;;;;;18.77;45.84;102529.59;5092936;28;20123;-67
2021/11/15 03:41:31;;;;;;;6.20;4.70;;;;;;;18.77;45.82;102532.25;5092435;28;20047;-67
2021/11/15 03:43:56;;;;;;;5.85;4.30;;;;;;;18.75;45.94;102530.63;5093068;28;20031;-67
2021/11/15 03:46:22;;;;;;;5.72;4.40;;;;;;;18.75;46.11;102533.25;5093031;28;20028;-67
2021/11/15 03:48:47;;;;;;;6.40;4.80;;;;;;;18.75;46.04;102534.09;5092317;28;20107;-68
2021/11/15 03:51:13;;;;;;;6.35;4.20;;;;;;;18.74;45.76;102532.41;5092902;28;20382;-68
2021/11/15 03:53:41;;;;;;;6.07;4.05;;;;;;;18.74;45.96;102529.78;5093016;28;20032;-68
2021/11/15 03:56:11;;;;;;;5.75;4.50;;;;;;;18.75;45.84;102533.25;5091871;28;20035;-68
2021/11/15 03:58:39;;;;;;;7.22;4.47;;;;;;;18.73;46.02;102530.69;5092961;28;20040;-68
2021/11/15 04:01:04;;;;;;;6.10;4.07;;;;;;;18.73;45.93;102537.78;5091887;28;20016;-68
2021/11/15 04:03:33;;;;;;;6.82;4.20;;;;;;;18.71;45.95;102524.66;5092792;28;20142;-68
2021/11/15 04:06:05;;;;;;;6.10;4.43;;;;;;;18.70;45.74;102533.50;5092507;28;20028;-67
2021/11/15 04:08:33;;;;;;;6.18;4.55;;;;;;;18.70;45.94;102537.94;5092330;28;20036;-68
2021/11/15 04:10:59;;;;;;;5.78;4.35;;;;;;;18.70;45.75;102541.44;5092066;28;20020;-67
2021/11/15 04:13:31;;;;;;;6.00;4.32;;;;;;;18.70;45.85;102549.34;5092931;28;20070;-68
2021/11/15 04:16:01;;;;;;;6.65;4.50;;;;;;;18.70;45.74;102543.22;5091971;28;20369;-67
2021/11/15 04:18:30;;;;;;;6.43;4.20;;;;;;;18.69;45.86;102550.28;5092574;28;20028;-68
2021/11/15 04:20:57;;;;;;;6.07;4.30;;;;;;;18.69;45.87;102545.00;5092612;28;20418;-67
2021/11/15 04:23:23;;;;;;;7.28;4.65;;;;;;;18.67;45.87;102547.75;5091734;28;20485;-68
2021/11/15 04:25:49;;;;;;;6.32;4.32;;;;;;;18.68;45.87;102551.25;5092719;28;20103;-67
2021/11/15 04:28:14;;;;;;;6.40;4.40;;;;;;;18.67;45.69;102553.03;5092449;28;20039;-67
2021/11/15 04:30:40;;;;;;;6.53;4.53;;;;;;;18.66;45.84;102553.13;5092034;28;20058;-68
2021/11/15 04:33:06;;;;;;;6.85;4.45;;;;;;;18.64;45.72;102552.34;5091823;28;20035;-67
2021/11/15 04:35:32;;;;;;;6.50;4.55;;;;;;;18.64;45.76;102549.69;5092550;28;20020;-68
2021/11/15 04:37:58;;;;;;;7.13;4.82;;;;;;;18.63;45.93;102548.03;5091329;28;20097;-69
2021/11/15 04:40:24;;;;;;;6.25;4.57;;;;;;;18.63;45.86;102545.38;5092295;28;20476;-67
2021/11/15 04:42:49;;;;;;;6.43;4.50;;;;;;;18.59;45.59;102547.31;5092734;28;20046;-68
2021/11/15 04:45:15;;;;;;;6.07;4.50;;;;;;;18.62;45.90;102548.94;5091621;28;20040;-68
2021/11/15 04:47:41;;;;;;;6.00;4.43;;;;;;;18.62;45.99;102548.94;5092524;28;20463;-68
2021/11/15 04:50:08;;;;;;;6.68;4.60;;;;;;;18.61;45.92;102548.09;5091920;28;20043;-67
2021/11/15 04:52:33;;;;;;;6.30;4.07;;;;;;;18.58;46.02;102544.75;5091612;28;20028;-67
2021/11/15 04:54:59;;;;;;;6.40;4.53;;;;;;;18.60;45.61;102551.66;5092049;28;20043;-68
2021/11/15 04:57:25;;;;;;;6.22;4.32;;;;;;;18.59;45.54;102547.31;5091381;28;20410;-68
2021/11/15 04:59:51;;;;;;;6.65;4.47;;;;;;;18.59;45.48;102552.59;5092289;28;20408;-68
2021/11/15 05:02:17;;;;;;;6.05;4.25;;;;;;;18.58;45.85;102545.63;5091688;28;20025;-67
2021/11/15 05:04:42;;;;;;;6.30;4.30;;;;;;;18.58;45.87;102547.41;5091454;28;20039;-68
2021/11/15 05:07:07;;;;;;;7.07;4.45;;;;;;;18.58;45.93;102547.41;5091597;28;20349;-68
2021/11/15 05:09:34;;;;;;;6.72;4.57;;;;;;;18.57;45.91;102549.22;5092277;28;20043;-68
2021/11/15 05:12:00;;;;;;;6.07;4.13;;;;;;;18.56;45.50;102544.84;5090679;28;20037;-67
2021/11/15 05:14:29;;;;;;;6.50;4.68;;;;;;;18.56;45.74;102551.94;5092151;28;20055;-68
2021/11/15 05:16:54;;;;;;;6.57;4.47;;;;;;;18.56;45.61;102551.94;5092203;28;20027;-68
2021/11/15 05:19:19;;;;;;;6.20;4.57;;;;;;;18.54;45.53;102545.91;5090847;28;20032;-68
2021/11/15 05:21:45;;;;;;;6.45;4.45;;;;;;;18.54;45.81;102543.25;5091960;28;20028;-68
2021/11/15 05:24:10;;;;;;;6.03;4.18;;;;;;;18.54;45.68;102548.53;5091832;28;20493;-67
2021/11/15 05:26:35;;;;;;;6.70;4.50;;;;;;;18.53;45.61;102547.66;5091114;28;20119;-68
2021/11/15 05:29:01;;;;;;;6.38;4.30;;;;;;;18.53;45.35;102549.47;5091683;28;20032;-68
2021/11/15 05:31:27;;;;;;;6.13;4.50;;;;;;;18.53;45.71;102552.94;5091841;28;20020;-67
2021/11/15 05:33:53;;;;;;;5.90;4.38;;;;;;;18.53;45.79;102552.09;5091130;28;20063;-67
2021/11/15 05:36:18;;;;;;;6.43;4.68;;;;;;;18.51;45.71;102549.53;5091607;28;20051;-68
2021/11/15 05:38:44;;;;;;;6.03;4.28;;;;;;;18.52;45.69;102553.03;5092115;28;20047;-67
2021/11/15 05:41:09;;;;;;;6.38;4.47;;;;;;;18.51;45.73;102553.97;5090735;28;20032;-68
2021/11/15 05:43:35;;;;;;;5.72;4.40;;;;;;;18.49;45.46;102554.06;5092927;28;20020;-68
2021/11/15 05:46:00;;;;;;;6.97;4.20;;;;;;;18.51;45.67;102560.09;5095145;28;20039;-67
2021/11/15 05:48:25;;;;;;;6.35;4.22;;;;;;;18.48;45.53;102555.88;5095074;28;20094;-67
2021/11/15 05:50:51;;;;;;;7.60;5.00;;;;;;;18.49;45.57;102552.28;5095159;28;20112;-67
2021/11/15 05:53:16;;;;;;;6.68;4.47;;;;;;;18.49;45.43;102552.28;5095086;28;20032;-68
2021/11/15 05:55:43;;;;;;;6.88;4.90;;;;;;;18.49;45.27;102551.44;5094689;28;20091;-67
2021/11/15 05:58:08;;;;;;;6.90;4.78;;;;;;;18.48;45.37;102550.59;5095062;28;20107;-68
2021/11/15 06:00:34;;;;;;;6.97;4.60;;;;;;;18.48;45.29;102555.00;5095857;28;20533;-67
2021/11/15 06:03:00;;;;;;;6.65;4.65;;;;;;;18.48;45.64;102555.00;5094457;28;20370;-67
2021/11/15 06:05:26;;;;;;;6.18;4.30;;;;;;;18.47;45.38;102550.66;5095120;28;20024;-67
2021/11/15 06:07:52;;;;;;;7.00;4.80;;;;;;;18.45;45.41;102549.88;5094495;28;20036;-67
2021/11/15 06:10:18;;;;;;;6.97;4.93;;;;;;;18.46;45.38;102547.16;5095068;28;20012;-67
2021/11/15 06:12:43;;;;;;;6.40;4.35;;;;;;;18.45;45.66;102545.47;5094758;28;20510;-68
2021/11/15 06:15:11;;;;;;;6.00;4.33;;;;;;;18.44;45.76;102535.00;5093881;28;20385;-67
2021/11/15 06:17:36;;;;;;;7.75;4.55;;;;;;;18.48;46.23;102547.06;5094605;28;20348;-68
2021/11/15 06:20:06;;;;;;;6.03;4.07;;;;;;;18.50;46.30;102534.66;5094186;28;20111;-67
2021/11/15 06:22:32;;;;;;;6.53;3.63;;;;;;;18.54;46.33;102544.09;5093880;28;20459;-68
2021/11/15 06:24:57;;;;;;;5.40;3.42;;;;;;;18.58;46.55;102544.75;5094490;28;20032;-68
2021/11/15 06:27:22;;;;;;;5.32;3.60;;;;;;;18.61;47.04;102534.03;5094779;28;20474;-67
2021/11/15 06:29:48;;;;;;;5.90;4.00;;;;;;;18.63;46.87;102538.31;5093835;28;20044;-67
2021/11/15 06:32:14;;;;;;;6.65;3.42;;;;;;;18.70;46.87;102559.09;5094265;28;20100;-67
2021/11/15 06:34:39;;;;;;;4.85;3.13;;;;;;;18.74;47.18;102555.31;5094533;28;20475;-67
2021/11/15 06:37:06;;;;;;;5.43;3.40;;;;;;;18.77;47.15;102563.06;5093809;28;20100;-67
2021/11/15 06:39:31;;;;;;;5.60;3.70;;;;;;;18.79;46.91;102572.63;5094859;28;20376;-68
2021/11/15 06:41:57;;;;;;;5.93;3.97;;;;;;;18.84;47.10;102561.81;5094960;28;20027;-67
2021/11/15 06:44:24;;;;;;;4.88;3.38;;;;;;;18.87;46.95;102573.97;5093898;28;20020;-67
2021/11/15 06:46:50;;;;;;;5.53;3.55;;;;;;;18.91;47.06;102575.53;5094412;28;20024;-68
2021/11/15 06:49:16;;;;;;;5.28;3.30;;;;;;;18.94;46.78;102575.34;5094156;28;20505;-68
2021/11/15 06:51:41;;;;;;;5.10;3.10;;;;;;;18.94;47.13;102568.25;5093444;28;20039;-68
2021/11/15 06:54:07;;;;;;;5.43;3.40;;;;;;;18.96;46.98;102562.88;5093868;28;20040;-68
2021/11/15 06:56:33;;;;;;;5.78;3.50;;;;;;;18.99;46.55;102574.16;5094091;28;20020;-67
2021/11/15 06:58:58;;;;;;;5.00;3.38;;;;;;;19.03;46.67;102577.47;5093059;28;20038;-67
2021/11/15 07:01:27;;;;;;;5.25;3.40;;;;;;;19.06;46.68;102584.34;5094556;28;20035;-68
2021/11/15 07:03:53;;;;;;;5.22;3.38;;;;;;;19.08;46.63;102571.91;5092616;28;20032;-67
2021/11/15 07:06:18;;;;;;;5.80;3.08;;;;;;;19.09;46.58;102582.41;5093165;28;20067;-68
2021/11/15 07:08:47;;;;;;;5.43;3.22;;;;;;;19.11;46.60;102575.22;5093654;28;20102;-67
2021/11/15 07:11:13;;;;;;;5.18;3.25;;;;;;;19.13;46.59;102578.63;5092635;28;20119;-68
2021/11/15 07:13:38;;;;;;;5.57;3.47;;;;;;;19.14;46.65;102582.97;5093692;28;20456;-67
2021/11/15 07:16:03;;;;;;;5.95;3.38;;;;;;;19.16;46.41;102581.09;5093152;28;20530;-68
2021/11/15 07:18:32;;;;;;;4.90;2.97;;;;;;;19.17;46.27;102580.16;5092697;28;20100;-67
2021/11/15 07:20:57;;;;;;;6.43;3.95;;;;;;;19.17;45.64;102582.78;5093036;28;20032;-72
2021/11/15 07:23:23;;;;;;;6.53;4.30;;;;;;;19.18;45.79;102578.34;5093587;28;20039;-68
2021/11/15 07:25:49;;;;;;;5.88;3.70;;;;;;;19.19;46.06;102582.72;5092893;28;20470;-68
2021/11/15 07:28:14;;;;;;;5.57;3.53;;;;;;;19.22;46.17;102587.81;5092915;28;20107;-67
2021/11/15 07:30:40;;;;;;;5.65;3.40;;;;;;;19.21;46.20;102586.94;5093435;28;20031;-66
2021/11/15 07:33:06;;;;;;;5.43;3.30;;;;;;;19.24;46.14;102588.56;5092324;28;20056;-69
2021/11/15 07:35:32;;;;;;;4.93;2.97;;;;;;;19.24;46.30;102580.63;5093505;28;20504;-68
2021/11/15 07:37:57;;;;;;;5.32;3.33;;;;;;;19.27;46.20;102590.19;5093188;28;20039;-68
2021/11/15 07:40:22;;;;;;;5.30;3.50;;;;;;;19.29;46.35;102589.16;5092592;28;20035;-66
2021/11/15 07:42:48;;;;;;;5.55;3.38;;;;;;;19.31;46.00;102583.75;5093172;28;20027;-67
2021/11/15 07:45:15;;;;;;;5.18;3.22;;;;;;;19.29;45.83;102583.84;5092595;28;20085;-70
2021/11/15 07:47:41;;;;;;;6.78;4.72;;;;;;;19.31;45.58;102582.00;5092200;28;20489;-70
2021/11/15 07:50:08;;;;;;;6.38;4.35;;;;;;;19.32;45.76;102583.69;5092986;28;20050;-69
2021/11/15 07:52:35;;;;;;;7.30;3.70;;;;;;;19.33;45.91;102590.69;5093117;28;20059;-68
2021/11/15 07:55:02;;;;;;;5.50;3.83;;;;;;;19.32;45.89;102583.69;5091808;28;20062;-68
2021/11/15 07:57:27;;;;;;;5.93;3.58;;;;;;;19.34;45.85;102586.22;5092949;28;20104;-70
2021/11/15 07:59:53;;;;;;;6.57;3.78;;;;;;;19.34;46.12;102586.22;5092704;28;20439;-69
2021/11/15 08:02:18;;;;;;;6.22;3.67;;;;;;;19.34;46.08;102592.38;5091910;28;20486;-69
2021/11/15 08:04:45;;;;;;;6.65;3.20;;;;;;;19.36;46.22;102593.16;5093063;28;20016;-69
2021/11/15 08:07:11;;;;;;;5.88;3.47;;;;;;;19.36;46.10;102601.06;5091639;28;20036;-69
2021/11/15 08:09:37;;;;;;;5.40;3.35;;;;;;;19.39;46.27;102602.66;5092291;28;20024;-69
2021/11/15 08:12:06;;;;;;;6.47;3.60;;;;;;;19.40;46.22;102605.22;5092148;28;20165;-69
2021/11/15 08:14:33;;;;;;;6.25;3.80;;;;;;;19.40;46.30;102599.94;5091858;28;20028;-71
2021/11/15 08:16:58;;;;;;;5.35;3.50;;;;;;;19.42;46.25;102602.47;5092566;28;20111;-68
2021/11/15 08:19:24;;;;;;;5.27;3.60;;;;;;;19.41;46.01;102584.94;5092549;28;20114;-67
2021/11/15 08:21:49;;;;;;;6.32;4.13;;;;;;;19.37;45.90;102580.75;5092190;28;20289;-70
2021/11/15 08:24:18;;;;;;;6.63;4.28;;;;;;;19.43;46.04;102592.78;5092364;28;20535;-69
2021/11/15 08:26:49;;;;;;;6.05;4.10;;;;;;;19.43;45.90;102587.50;5092606;28;20046;-68
2021/11/15 08:29:15;;;;;;;6.07;3.90;;;;;;;19.37;46.06;102589.53;5091304;28;20119;-68
2021/11/15 08:31:44;;;;;;;7.32;4.35;;;;;;;19.41;46.00;102587.59;5093007;28;20040;-68
2021/11/15 08:34:10;;;;;;;7.35;4.40;;;;;;;19.38;46.14;102583.31;5092318;28;20035;-73
2021/11/15 08:36:38;;;;;;;7.07;4.20;;;;;;;19.40;46.14;102585.88;5091975;28;20032;-68
2021/11/15 08:39:06;;;;;;;7.90;4.20;;;;;;;19.38;45.93;102583.31;5092147;28;20036;-67
2021/11/15 08:41:35;;;;;;;7.55;4.25;;;;;;;19.36;46.11;102579.09;5092210;28;20020;-69
2021/11/15 08:44:04;;;;;;;7.13;4.82;;;;;;;19.35;45.76;102586.13;5091634;28;20024;-68
2021/11/15 08:46:30;;;;;;;6.65;4.70;;;;;;;19.34;46.04;102579.19;5092675;28;20044;-68
2021/11/15 08:48:57;;;;;;;6.43;4.13;;;;;;;19.32;45.91;102580.19;5092543;28;20032;-67
2021/11/15 08:51:23;;;;;;;7.22;4.35;;;;;;;19.30;45.97;102582.09;5091636;28;20135;-68
2021/11/15 08:53:50;;;;;;;7.43;4.60;;;;;;;19.31;45.84;102581.13;5092305;28;20048;-67
2021/11/15 08:56:17;;;;;;;7.30;4.55;;;;;;;19.28;45.87;102590.09;5092210;28;20391;-68
2021/11/15 08:58:43;;;;;;;6.63;4.20;;;;;;;19.29;45.91;102588.31;5091476;28;20024;-67
2021/11/15 09:01:10;;;;;;;6.07;4.03;;;;;;;19.28;45.72;102587.47;5092167;28;20085;-67
2021/11/15 09:03:41;;;;;;;6.97;4.75;;;;;;;19.26;45.79;102584.03;5091550;28;20020;-68
2021/11/15 09:06:07;;;;;;;6.97;4.43;;;;;;;19.28;45.65;102576.00;5091807;28;20041;-67
2021/11/15 09:08:34;;;;;;;6.63;4.00;;;;;;;19.27;46.02;102591.03;5092075;28;20050;-68
2021/11/15 09:11:00;;;;;;;8.77;5.05;;;;;;;19.28;45.96;102587.47;5090636;28;20043;-67
2021/11/15 09:13:25;;;;;;;7.80;4.95;;;;;;;19.26;45.52;102594.59;5092146;28;20028;-67
2021/11/15 09:15:51;;;;;;;7.80;4.60;;;;;;;19.27;45.45;102600.78;5091896;28;20117;-66
2021/11/15 09:18:16;;;;;;;7.30;4.68;;;;;;;19.26;45.47;102591.97;5092936;28;20413;-67
2021/11/15 09:20:41;;;;;;;6.93;4.40;;;;;;;19.25;45.54;102592.06;5095809;28;20379;-67
2021/11/15 09:23:07;;;;;;;9.07;4.88;;;;;;;19.25;45.29;102589.41;5095368;28;20371;-70
2021/11/15 09:25:34;;;;;;;8.98;4.88;;;;;;;19.23;45.02;102589.50;5095241;28;20095;-67
2021/11/15 09:27:59;;;;;;;7.60;4.57;;;;;;;19.22;45.37;102585.19;5095563;28;20045;-67
2021/11/15 09:30:25;;;;;;;7.10;4.88;;;;;;;19.21;45.31;102583.47;5095713;28;20443;-67
2021/11/15 09:32:50;;;;;;;8.02;4.43;;;;;;;19.21;45.62;102586.94;5094891;28;20075;-68
2021/11/15 09:35:15;;;;;;;7.18;4.43;;;;;;;19.19;45.50;102588.84;5095211;28;20024;-68
2021/11/15 09:37:41;;;;;;;7.00;4.63;;;;;;;19.20;45.66;102590.53;5095938;28;20056;-71
2021/11/15 09:40:09;;;;;;;6.40;4.50;;;;;;;19.24;45.38;102591.22;5096094;28;20284;-71
2021/11/15 09:42:35;;;;;;;6.55;4.65;;;;;;;19.30;45.02;102590.84;5096540;28;20043;-73
2021/11/15 09:45:04;;;;;;;7.55;4.50;;;;;;;19.39;44.98;102589.44;5096659;28;20024;-73
2021/11/15 09:47:29;;;;;;;6.93;4.50;;;;;;;19.46;45.03;102587.31;5097374;28;20043;-77
2021/11/15 09:49:55;;;;;;;6.22;4.03;;;;;;;19.52;44.81;102585.16;5096450;28;20028;-75
2021/11/15 09:52:20;;;;;;;7.30;4.68;;;;;;;19.53;44.96;102584.19;5095495;28;20202;-69
2021/11/15 09:54:46;;;;;;;7.43;5.05;;;;;;;19.52;44.83;102593.09;5094539;28;20036;-69
2021/11/15 09:57:15;;;;;;;6.40;4.13;;;;;;;19.49;45.01;102593.25;5094937;28;20039;-70
2021/11/15 09:59:44;;;;;;;7.15;3.85;;;;;;;19.46;45.08;102596.09;5094905;28;20085;-70
2021/11/15 10:02:10;;;;;;;7.88;4.88;;;;;;;19.43;45.09;102598.91;5094415;28;20024;-69
2021/11/15 10:04:38;;;;;;;6.97;4.20;;;;;;;19.40;45.02;102592.00;5096769;28;20020;-71
2021/11/15 10:07:04;;;;;;;7.28;4.55;;;;;;;19.45;44.72;102591.72;5097182;28;20028;-73
2021/11/15 10:09:32;;;;;;;6.60;4.47;;;;;;;19.54;44.76;102593.00;5100523;28;20028;-72
2021/11/15 10:12:08;;;;;;;6.68;4.53;;;;;;;19.63;44.66;102591.56;5100533;28;20042;-72
2021/11/15 10:14:34;;;;;;;7.20;4.63;;;;;;;19.73;44.21;102588.28;5100066;28;20036;-72
2021/11/15 10:17:02;;;;;;;7.93;4.25;;;;;;;19.82;44.14;102586.91;5098430;28;20115;-71
2021/11/15 10:19:30;;;;;;;6.80;4.47;;;;;;;19.90;43.92;102589.06;5096438;28;20051;-70
2021/11/15 10:21:58;;;;;;;7.22;4.40;;;;;;;19.92;43.77;102582.75;5097868;28;20075;-75
2021/11/15 10:24:30;;;;;;;8.73;4.78;;;;;;;19.95;43.84;102589.66;5101931;28;20048;-72
2021/11/15 10:27:00;;;;;;;6.43;4.43;;;;;;;19.95;43.78;102581.72;5098432;28;20035;-71
2021/11/15 10:29:34;;;;;;;8.15;4.70;;;;;;;19.96;43.63;102578.13;5097854;28;20036;-72
2021/11/15 10:32:08;;;;;;;7.80;4.47;;;;;;;19.97;44.12;102573.69;5096384;28;20028;-78
2021/11/15 10:34:42;;;;;;;8.50;4.80;;;;;;;19.98;43.82;102573.59;5095052;28;20471;-78
2021/11/15 10:37:11;;;;;;;;;;;;;;;19.97;43.85;102566.59;5094693;28;20067;-76
2021/11/15 10:39:50;;;;;;;6.78;4.22;;;;;;;19.96;44.09;102559.59;5096020;28;19919;-80
2021/11/15 10:42:21;;;;;;;6.93;3.97;;;;;;;19.98;43.74;102567.44;5093733;28;20043;-79
2021/11/15 10:44:49;;;;;;;6.43;4.60;;;;;;;19.97;43.98;102563.09;5094895;28;20047;-75
2021/11/15 10:47:15;;;;;;;9.60;4.90;;;;;;;19.91;43.87;102554.56;5094940;28;20515;-70
2021/11/15 10:49:42;;;;;;;8.20;4.55;;;;;;;19.87;44.20;102558.38;5093483;28;20042;-69
2021/11/15 10:52:11;;;;;;;7.68;4.53;;;;;;;19.81;44.38;102552.63;5093844;28;20019;-69
2021/11/15 10:55:00;;;;;;;6.95;4.57;;;;;;;19.73;44.21;102550.41;5092637;28;20110;-70
2021/11/15 10:57:29;;;;;;;7.50;4.80;;;;;;;19.68;44.46;102547.22;5093250;28;20459;-70
2021/11/15 11:00:07;;;;;;;7.85;4.82;;;;;;;19.63;44.57;102557.19;5094182;28;20028;-72
2021/11/15 11:02:36;;;;;;;7.05;4.80;;;;;;;19.58;44.71;102565.41;5094720;28;20086;-67
2021/11/15 11:05:17;;;;;;;7.00;4.78;;;;;;;19.54;44.80;102567.38;5092977;28;20043;-67
2021/11/15 11:07:48;;;;;;;7.18;4.72;;;;;;;19.51;45.21;102564.94;5093943;28;20386;-67
2021/11/15 11:10:18;;;;;;;8.18;4.88;;;;;;;19.48;44.90;102567.75;5092779;28;20024;-68
2021/11/15 11:12:58;;;;;;;6.65;4.50;;;;;;;19.46;45.26;102572.28;5093651;28;20047;-67
2021/11/15 11:15:34;;;;;;;6.53;4.45;;;;;;;19.44;45.32;102568.03;5093708;28;20093;-69
2021/11/15 11:18:10;;;;;;;7.90;4.53;;;;;;;19.44;45.13;102563.59;5092624;28;20126;-70
2021/11/15 11:21:14;;;;;;;7.13;4.70;;;;;;;19.43;45.04;102561.06;5093734;28;20035;-69
2021/11/15 11:26:19;;;;;;;6.88;4.55;;;;;;;19.39;45.27;102558.59;5092003;28;20028;-69